Time;durP1;ratioP1;P1;durP2;ratioP2;P2;SDS_P1;SDS_P2;PMS_P1;PMS_P2;Temp;Humidity;BMP_temperature;BMP_pressure;BME280_temperature;BME280_humidity;BME280_pressure;Samples;Min_cycle;Max_cycle;Signal;HPM_P1;HPM_P2
2022/10/12 00:01:06;;;;;;;24.25;15.60;;;;;;;12.49;86.70;98308.98;1763758;80;20952;-79
2022/10/12 00:03:35;;;;;;;24.87;16.23;;;;;;;12.48;86.77;98311.23;1764449;80;20994;-79
2022/10/12 00:06:10;;;;;;;25.88;16.35;;;;;;;12.46;86.73;98313.53;1790037;80;21023;-79
2022/10/12 00:08:38;;;;;;;28.75;15.15;;;;;;;12.45;86.84;98311.32;1789421;80;20989;-79
2022/10/12 00:11:06;;;;;;;21.57;14.78;;;;;;;12.45;86.61;98309.14;1787459;80;20995;-79
2022/10/12 00:13:33;;;;;;;21.87;15.30;;;;;;;12.49;86.74;98306.77;1787333;80;20973;-78
2022/10/12 00:16:06;;;;;;;22.73;15.15;;;;;;;12.49;86.33;98311.64;1787369;80;20977;-79
2022/10/12 00:18:34;;;;;;;27.13;14.98;;;;;;;12.48;86.63;98310.35;1787217;80;21008;-79
2022/10/12 00:21:06;;;;;;;24.55;14.83;;;;;;;12.48;86.23;98309.91;1771426;80;21003;-79
2022/10/12 00:23:39;;;;;;;23.20;15.28;;;;;;;12.46;86.38;98305.08;1745965;81;21041;-79
2022/10/12 00:26:12;;;;;;;26.75;15.55;;;;;;;12.49;86.74;98312.08;1785745;80;22120;-79
2022/10/12 00:28:39;;;;;;;21.27;14.78;;;;;;;12.52;86.24;98313.33;1792199;80;20985;-78
2022/10/12 00:31:13;;;;;;;24.82;16.48;;;;;;;12.51;85.91;98312.92;1773342;80;21033;-77
2022/10/12 00:33:43;;;;;;;27.17;15.40;;;;;;;12.46;86.06;98318.37;1771539;80;21052;-76
2022/10/12 00:36:25;;;;;;;27.90;16.00;;;;;;;12.46;85.92;98307.73;1767431;78;20989;-76
2022/10/12 00:38:56;;;;;;;26.68;15.98;;;;;;;12.42;85.76;98308.78;1773251;80;21001;-76
2022/10/12 00:41:28;;;;;;;27.32;16.57;;;;;;;12.39;86.16;98310.20;1787231;80;21008;-76
2022/10/12 00:43:57;;;;;;;25.45;15.28;;;;;;;12.39;86.51;98304.88;1774100;80;20973;-77
2022/10/12 00:46:41;;;;;;;23.27;15.35;;;;;;;12.38;86.53;98306.66;1746226;81;21144;-77
2022/10/12 00:49:22;;;;;;;22.80;15.32;;;;;;;12.35;86.18;98304.11;1701805;83;21001;-77
2022/10/12 00:51:58;;;;;;;23.25;14.90;;;;;;;12.32;85.87;98304.20;1700654;83;21009;-77
2022/10/12 00:54:29;;;;;;;25.70;15.72;;;;;;;12.26;86.21;98302.59;1706941;83;20997;-76
2022/10/12 00:56:58;;;;;;;24.18;15.90;;;;;;;12.23;85.71;98300.05;1700239;83;21014;-77
2022/10/12 00:59:36;;;;;;;27.52;16.50;;;;;;;12.19;85.83;98309.04;1712464;83;21465;-77
2022/10/12 01:02:03;;;;;;;23.95;14.93;;;;;;;12.16;85.79;98300.30;1705300;83;21032;-77
2022/10/12 01:04:31;;;;;;;24.52;15.80;;;;;;;12.09;87.22;98305.78;1712493;83;20988;-78
2022/10/12 01:06:59;;;;;;;24.02;16.30;;;;;;;12.10;86.68;98303.56;1701400;83;20989;-77
2022/10/12 01:09:27;;;;;;;25.50;16.27;;;;;;;12.09;86.75;98307.59;1710408;83;20996;-77
2022/10/12 01:11:56;;;;;;;28.20;16.42;;;;;;;12.06;86.88;98308.55;1726890;83;21466;-77
2022/10/12 01:14:24;;;;;;;25.55;15.48;;;;;;;12.05;86.58;98304.16;1708705;83;21378;-77
2022/10/12 01:17:38;;;;;;;23.45;15.70;;;;;;;12.03;86.64;98310.41;1711218;82;21022;-78
2022/10/12 01:20:30;;;;;;;31.00;16.77;;;;;;;12.03;86.72;98310.41;1629519;86;21548;-78
2022/10/12 01:23:26;;;;;;;22.40;15.58;;;;;;;11.99;86.34;98310.94;1696707;84;20972;-78
2022/10/12 01:26:24;;;;;;;23.85;14.95;;;;;;;11.96;86.50;98315.03;1748409;80;20998;-78
2022/10/12 01:29:23;;;;;;;28.57;15.98;;;;;;;11.92;86.70;98313.38;1763829;80;21423;-77
2022/10/12 01:32:10;;;;;;;23.32;15.08;;;;;;;11.92;86.86;98312.05;1746371;81;20978;-77
2022/10/12 01:35:04;;;;;;;23.52;15.98;;;;;;;11.88;86.50;98307.30;1713318;83;20921;-77
2022/10/12 01:37:45;;;;;;;26.60;15.78;;;;;;;11.82;86.57;98311.44;1699802;83;21046;-77
2022/10/12 01:40:21;;;;;;;25.72;16.12;;;;;;;11.77;86.73;98311.59;1702096;83;21015;-77
2022/10/12 01:42:49;;;;;;;22.00;16.30;;;;;;;11.74;87.06;98309.89;1696033;83;20986;-77
2022/10/12 01:45:20;;;;;;;25.05;15.20;;;;;;;11.70;87.53;98308.23;1702290;83;21394;-77
2022/10/12 01:47:53;;;;;;;26.50;15.05;;;;;;;11.69;87.52;98314.91;1722269;83;20953;-77
2022/10/12 01:50:24;;;;;;;23.77;14.98;;;;;;;11.70;87.66;98306.03;1701497;83;21009;-77
2022/10/12 01:53:23;;;;;;;21.95;15.63;;;;;;;11.71;87.36;98311.30;1706924;83;21083;-77
2022/10/12 01:56:16;;;;;;;22.90;14.93;;;;;;;11.71;87.40;98315.76;1704374;83;20961;-77
2022/10/12 01:59:04;;;;;;;26.17;15.43;;;;;;;11.72;87.44;98316.16;1702421;83;21037;-77
2022/10/12 02:02:04;;;;;;;21.60;14.05;;;;;;;11.72;87.68;98313.03;1723473;83;21706;-77
2022/10/12 02:04:44;;;;;;;21.87;13.62;;;;;;;11.75;88.15;98320.03;1694533;83;21060;-77
2022/10/12 02:07:26;;;;;;;21.57;14.07;;;;;;;11.80;88.41;98319.92;1710663;83;21085;-77
2022/10/12 02:09:57;;;;;;;23.75;14.55;;;;;;;11.87;88.45;98320.14;1723837;83;21005;-76
2022/10/12 02:12:26;;;;;;;19.30;13.30;;;;;;;11.88;88.31;98319.25;1690376;84;20999;-77
2022/10/12 02:15:01;;;;;;;22.05;14.10;;;;;;;11.92;88.12;98325.33;1677481;84;21040;-76
2022/10/12 02:17:29;;;;;;;20.23;13.38;;;;;;;11.94;88.01;98322.16;1691004;84;21000;-77
2022/10/12 02:19:59;;;;;;;21.95;14.15;;;;;;;11.95;88.49;98321.23;1687057;82;20934;-76
2022/10/12 02:22:33;;;;;;;24.50;14.05;;;;;;;11.99;88.65;98322.44;1705112;83;21477;-77
2022/10/12 02:25:04;;;;;;;22.10;14.18;;;;;;;12.04;88.57;98321.44;1683631;84;21382;-77
2022/10/12 02:27:34;;;;;;;20.75;14.07;;;;;;;12.07;88.68;98324.02;1705732;83;20981;-77
2022/10/12 02:30:02;;;;;;;24.27;13.90;;;;;;;12.07;87.98;98327.55;1699699;84;20965;-77
2022/10/12 02:32:40;;;;;;;22.58;15.08;;;;;;;12.03;87.82;98325.87;1727519;83;20965;-77
2022/10/12 02:35:33;;;;;;;21.20;15.10;;;;;;;11.98;87.65;98319.83;1714118;82;20938;-77
2022/10/12 02:38:13;;;;;;;22.30;14.80;;;;;;;11.93;87.94;98314.66;1732927;82;20981;-77
2022/10/12 02:40:53;;;;;;;21.30;14.50;;;;;;;11.93;88.06;98319.98;1725316;82;21407;-77
2022/10/12 02:43:42;;;;;;;21.97;13.55;;;;;;;11.95;88.66;98316.80;1721507;81;21022;-77
2022/10/12 02:46:12;;;;;;;20.97;13.90;;;;;;;11.99;88.73;98318.90;1752493;81;21406;-77
2022/10/12 02:48:41;;;;;;;24.18;13.72;;;;;;;12.03;88.57;98321.88;1736433;81;20956;-77
2022/10/12 02:51:10;;;;;;;23.80;14.18;;;;;;;12.00;88.32;98322.84;1726845;81;20984;-77
2022/10/12 02:53:41;;;;;;;18.02;12.78;;;;;;;11.94;88.02;98323.04;1730967;83;21087;-77
2022/10/12 02:56:13;;;;;;;23.92;14.23;;;;;;;11.86;88.15;98319.28;1701747;83;21440;-77
2022/10/12 02:58:45;;;;;;;20.25;13.40;;;;;;;11.85;88.23;98328.17;1725873;83;21005;-77
2022/10/12 03:01:13;;;;;;;20.23;13.60;;;;;;;11.84;88.39;98327.73;1730051;83;20996;-76
2022/10/12 03:03:40;;;;;;;23.62;14.03;;;;;;;11.85;88.07;98324.64;1709566;83;21022;-77
2022/10/12 03:06:07;;;;;;;22.73;14.60;;;;;;;11.83;88.01;98329.14;1730810;83;20993;-77
2022/10/12 03:08:34;;;;;;;33.33;15.03;;;;;;;11.74;87.77;98324.50;1730707;83;21422;-77
2022/10/12 03:11:07;;;;;;;20.52;14.38;;;;;;;11.71;87.78;98325.91;1730856;82;21024;-79
2022/10/12 03:13:34;;;;;;;20.45;14.33;;;;;;;11.69;88.17;98322.88;1730913;82;21040;-78
2022/10/12 03:16:10;;;;;;;23.55;14.87;;;;;;;11.66;88.19;98322.51;1730977;83;20996;-78
2022/10/12 03:18:39;;;;;;;21.25;14.93;;;;;;;11.64;88.08;98328.33;1730693;83;20997;-79
2022/10/12 03:21:06;;;;;;;22.60;14.65;;;;;;;11.61;88.16;98323.98;1730188;83;21458;-78
2022/10/12 03:23:34;;;;;;;18.67;13.90;;;;;;;11.58;87.88;98327.16;1750959;81;21000;-78
2022/10/12 03:26:03;;;;;;;22.75;14.60;;;;;;;11.54;87.81;98326.38;1732939;81;20996;-79
2022/10/12 03:28:32;;;;;;;27.37;16.65;;;;;;;11.47;87.82;98324.35;1746260;81;21037;-78
2022/10/12 03:30:59;;;;;;;23.35;15.25;;;;;;;11.41;87.90;98329.84;1725546;83;20994;-78
2022/10/12 03:33:29;;;;;;;26.85;16.57;;;;;;;11.37;88.23;98330.83;1708069;83;21020;-78
2022/10/12 03:35:56;;;;;;;24.18;15.18;;;;;;;11.34;88.59;98332.27;1754441;80;20987;-78
2022/10/12 03:38:22;;;;;;;28.05;16.37;;;;;;;11.31;88.27;98333.22;1754856;80;21020;-75
2022/10/12 03:40:49;;;;;;;29.35;17.25;;;;;;;11.26;88.16;98331.15;1723599;83;21012;-78
2022/10/12 03:43:17;;;;;;;26.97;16.25;;;;;;;11.21;88.44;98333.91;1701923;83;21033;-78
2022/10/12 03:45:44;;;;;;;24.82;15.18;;;;;;;11.20;88.49;98329.96;1775876;80;21010;-79
2022/10/12 03:48:10;;;;;;;24.75;16.62;;;;;;;11.15;88.50;98324.80;1780402;80;21024;-79
2022/10/12 03:50:37;;;;;;;25.48;17.23;;;;;;;11.12;88.67;98330.17;1779867;80;21080;-79
2022/10/12 03:53:06;;;;;;;24.02;17.48;;;;;;;11.09;88.55;98320.51;1764176;80;20979;-79
2022/10/12 03:55:35;;;;;;;26.20;18.77;;;;;;;11.05;88.65;98332.11;1763432;80;21454;-79
2022/10/12 03:58:05;;;;;;;33.67;19.48;;;;;;;11.03;88.71;98329.96;1776799;80;20949;-76
2022/10/12 04:00:31;;;;;;;28.83;19.37;;;;;;;11.01;88.72;98326.46;1788693;80;21028;-76
2022/10/12 04:02:58;;;;;;;29.25;18.98;;;;;;;10.98;88.80;98332.31;1794974;80;20992;-76
2022/10/12 04:05:25;;;;;;;30.35;19.48;;;;;;;10.96;88.99;98337.64;1794905;80;21484;-79
2022/10/12 04:07:51;;;;;;;32.73;21.35;;;;;;;10.94;89.49;98342.13;1794887;80;20973;-79
2022/10/12 04:10:18;;;;;;;33.25;20.77;;;;;;;10.91;89.27;98348.38;1794177;80;20996;-79
2022/10/12 04:12:45;;;;;;;31.90;22.07;;;;;;;10.90;89.05;98344.44;1796415;80;20929;-79
2022/10/12 04:15:14;;;;;;;31.42;22.60;;;;;;;10.89;89.12;98348.01;1794773;80;21026;-79
2022/10/12 04:17:40;;;;;;;38.50;24.05;;;;;;;10.90;89.27;98344.44;1786891;80;21021;-79
2022/10/12 04:20:11;;;;;;;39.58;24.23;;;;;;;10.91;89.47;98353.69;1782958;80;21457;-78
2022/10/12 04:22:40;;;;;;;38.50;25.15;;;;;;;10.95;89.75;98349.17;1793189;80;20973;-79
2022/10/12 04:25:11;;;;;;;38.55;24.27;;;;;;;10.98;89.63;98345.13;1794743;80;20921;-79
2022/10/12 04:27:44;;;;;;;39.05;25.57;;;;;;;11.02;89.79;98349.45;1764164;80;21445;-79
2022/10/12 04:30:11;;;;;;;42.30;26.30;;;;;;;11.07;89.71;98354.61;1792883;80;20996;-79
2022/10/12 04:32:40;;;;;;;44.70;26.20;;;;;;;11.08;89.88;98342.64;1777242;80;21372;-79
2022/10/12 04:35:08;;;;;;;44.38;26.12;;;;;;;11.10;89.94;98349.25;1783957;78;20988;-79
2022/10/12 04:37:34;;;;;;;40.83;26.12;;;;;;;11.12;90.09;98341.25;1734035;80;21025;-79
2022/10/12 04:40:02;;;;;;;43.28;26.00;;;;;;;11.15;90.33;98349.99;1795358;80;20941;-79
2022/10/12 04:42:29;;;;;;;38.92;25.02;;;;;;;11.20;90.40;98345.88;1794629;80;21015;-79
2022/10/12 04:44:55;;;;;;;40.52;25.72;;;;;;;11.24;90.26;98349.34;1782965;80;21430;-79
2022/10/12 04:47:22;;;;;;;46.58;27.07;;;;;;;11.28;90.55;98352.30;1780817;81;20957;-77
2022/10/12 04:49:48;;;;;;;36.03;23.87;;;;;;;11.36;90.64;98355.63;1781012;80;20949;-77
2022/10/12 04:52:16;;;;;;;35.95;23.73;;;;;;;11.45;90.58;98355.83;1774462;80;21009;-77
2022/10/12 04:54:43;;;;;;;38.70;23.50;;;;;;;11.50;90.47;98361.87;1757660;80;20973;-77
2022/10/12 04:57:09;;;;;;;40.15;24.32;;;;;;;11.55;90.24;98360.45;1778676;80;20973;-77
2022/10/12 04:59:36;;;;;;;41.85;23.95;;;;;;;11.56;89.97;98356.87;1780037;80;20941;-77
2022/10/12 05:02:04;;;;;;;40.85;23.77;;;;;;;11.55;89.84;98354.66;1770612;80;21373;-77
2022/10/12 05:04:31;;;;;;;38.73;22.90;;;;;;;11.59;90.38;98356.32;1775286;80;20993;-77
2022/10/12 05:06:57;;;;;;;41.50;22.75;;;;;;;11.64;90.41;98357.54;1769768;80;20962;-77
2022/10/12 05:09:27;;;;;;;36.25;23.27;;;;;;;11.70;90.64;98362.66;1775772;80;20992;-78
2022/10/12 05:11:53;;;;;;;37.67;23.95;;;;;;;11.77;90.56;98363.36;1774943;80;21422;-76
2022/10/12 05:14:20;;;;;;;37.15;23.32;;;;;;;11.83;90.17;98367.16;1763582;80;21040;-75
2022/10/12 05:16:47;;;;;;;34.85;22.87;;;;;;;11.82;89.60;98373.40;1757432;80;21494;-77
2022/10/12 05:19:13;;;;;;;42.88;24.32;;;;;;;11.83;89.59;98379.59;1772933;80;21013;-77
2022/10/12 05:21:41;;;;;;;41.60;24.23;;;;;;;11.83;89.52;98369.82;1763642;81;21031;-77
2022/10/12 05:24:08;;;;;;;36.20;23.45;;;;;;;11.86;89.68;98376.83;1764766;80;20922;-77
2022/10/12 05:26:34;;;;;;;38.10;24.52;;;;;;;11.89;89.61;98376.27;1777977;80;21121;-78
2022/10/12 05:29:01;;;;;;;39.35;25.35;;;;;;;11.93;89.55;98374.88;1770346;80;21446;-76
2022/10/12 05:31:27;;;;;;;42.88;25.27;;;;;;;11.93;89.53;98370.89;1773278;80;20989;-76
2022/10/12 05:33:54;;;;;;;38.75;25.40;;;;;;;11.97;89.57;98378.73;1765694;80;21017;-76
2022/10/12 05:36:23;;;;;;;38.00;26.00;;;;;;;12.01;89.75;98379.03;1766004;80;21000;-73
2022/10/12 05:38:50;;;;;;;40.60;25.43;;;;;;;12.06;89.50;98380.28;1772819;80;20978;-75
2022/10/12 05:41:16;;;;;;;42.75;27.48;;;;;;;12.05;88.86;98383.86;1761999;80;20989;-75
2022/10/12 05:43:52;;;;;;;38.25;25.12;;;;;;;12.03;88.66;98388.29;1776991;80;21008;-76
2022/10/12 05:46:32;;;;;;;41.45;23.60;;;;;;;12.01;88.87;98391.47;1792965;80;21047;-75
2022/10/12 05:49:04;;;;;;;36.30;20.62;;;;;;;11.99;89.11;98395.48;1787502;80;20977;-75
2022/10/12 05:51:30;;;;;;;32.10;17.98;;;;;;;12.00;88.80;98392.39;1789578;80;21044;-76
2022/10/12 05:53:57;;;;;;;31.52;18.62;;;;;;;11.94;88.24;98392.09;1791223;80;20984;-75
2022/10/12 05:56:23;;;;;;;29.30;17.17;;;;;;;11.89;88.36;98399.33;1791803;80;20973;-75
2022/10/12 05:58:50;;;;;;;26.93;17.12;;;;;;;11.85;88.39;98406.96;1765420;80;21497;-75
2022/10/12 06:01:17;;;;;;;28.38;17.07;;;;;;;11.84;88.48;98399.44;1792730;80;20985;-75
2022/10/12 06:03:43;;;;;;;25.37;17.10;;;;;;;11.85;88.67;98402.53;1788012;80;21194;-75
2022/10/12 06:06:10;;;;;;;28.23;16.87;;;;;;;11.83;88.62;98403.02;1790269;80;20969;-75
2022/10/12 06:08:36;;;;;;;26.52;17.05;;;;;;;11.87;88.94;98406.45;1789230;80;20957;-75
2022/10/12 06:11:03;;;;;;;31.80;17.73;;;;;;;11.90;88.48;98403.72;1788098;80;20958;-76
2022/10/12 06:13:30;;;;;;;29.42;18.00;;;;;;;11.91;88.68;98406.78;1762717;80;20955;-76
2022/10/12 06:15:57;;;;;;;24.65;17.17;;;;;;;11.92;88.57;98403.68;1788895;80;20941;-76
2022/10/12 06:18:23;;;;;;;31.07;18.25;;;;;;;11.94;88.62;98412.02;1795191;80;20968;-75
2022/10/12 06:20:53;;;;;;;26.45;18.12;;;;;;;11.96;88.64;98418.14;1794885;80;20964;-75
2022/10/12 06:23:20;;;;;;;30.10;18.10;;;;;;;12.01;88.64;98418.88;1794973;80;20944;-76
2022/10/12 06:25:50;;;;;;;26.82;17.52;;;;;;;12.05;88.69;98413.08;1794559;80;21011;-76
2022/10/12 06:28:19;;;;;;;30.30;18.48;;;;;;;12.09;88.53;98416.51;1793442;80;21020;-75
2022/10/12 06:30:55;;;;;;;34.95;19.80;;;;;;;12.12;88.29;98416.40;1774434;80;21061;-75
2022/10/12 06:33:22;;;;;;;30.02;18.92;;;;;;;12.12;87.86;98408.43;1782489;80;21156;-74
2022/10/12 06:35:49;;;;;;;36.00;20.02;;;;;;;12.14;88.21;98413.26;1763598;80;20978;-75
2022/10/12 06:38:16;;;;;;;34.48;20.12;;;;;;;12.17;88.30;98414.51;1766721;80;20971;-75
2022/10/12 06:40:44;;;;;;;31.15;19.67;;;;;;;12.23;88.14;98415.65;1787176;80;20973;-75
2022/10/12 06:43:10;;;;;;;34.38;21.55;;;;;;;12.26;88.28;98415.53;1787461;80;21000;-75
2022/10/12 06:45:37;;;;;;;33.80;19.32;;;;;;;12.34;88.33;98422.42;1783443;80;21024;-75
2022/10/12 06:48:04;;;;;;;28.05;18.85;;;;;;;12.33;87.92;98429.52;1779414;80;21426;-75
2022/10/12 06:50:31;;;;;;;35.75;19.87;;;;;;;12.33;88.07;98420.69;1780901;80;20970;-74
2022/10/12 06:52:58;;;;;;;37.00;20.82;;;;;;;12.38;88.04;98432.06;1763585;80;20989;-75
2022/10/12 06:55:24;;;;;;;32.90;19.80;;;;;;;12.41;87.77;98426.62;1784998;80;20949;-75
2022/10/12 06:57:51;;;;;;;29.10;20.30;;;;;;;12.45;87.81;98435.41;1787521;80;21076;-75
2022/10/12 07:00:18;;;;;;;31.57;21.27;;;;;;;12.50;87.82;98430.81;1770628;80;21014;-75
2022/10/12 07:02:44;;;;;;;33.88;22.42;;;;;;;12.52;87.55;98429.85;1787454;80;20965;-75
2022/10/12 07:05:10;;;;;;;36.13;19.98;;;;;;;12.58;87.42;98427.92;1753301;80;20992;-75
2022/10/12 07:07:38;;;;;;;26.02;18.98;;;;;;;12.61;87.19;98430.47;1771155;80;21708;-75
2022/10/12 07:10:06;;;;;;;31.27;20.43;;;;;;;12.69;87.45;98432.44;1772324;80;21078;-75
2022/10/12 07:12:36;;;;;;;33.28;20.57;;;;;;;12.78;87.26;98431.27;1769287;80;20993;-75
2022/10/12 07:15:05;;;;;;;33.55;19.98;;;;;;;12.88;87.32;98441.17;1787397;80;21481;-75
2022/10/12 07:17:31;;;;;;;31.52;20.85;;;;;;;12.98;87.24;98432.42;1782790;80;20982;-75
2022/10/12 07:19:58;;;;;;;32.93;20.30;;;;;;;13.04;86.90;98434.42;1763619;80;20990;-75
2022/10/12 07:22:26;;;;;;;30.27;20.72;;;;;;;13.11;86.50;98431.56;1782824;80;21410;-75
2022/10/12 07:24:52;;;;;;;32.65;20.50;;;;;;;13.15;86.64;98427.43;1787429;80;21000;-75
2022/10/12 07:27:19;;;;;;;33.25;22.07;;;;;;;13.24;86.56;98432.05;1786448;80;21008;-75
2022/10/12 07:29:45;;;;;;;31.60;21.73;;;;;;;13.29;86.47;98436.27;1768909;80;21021;-75
2022/10/12 07:32:12;;;;;;;35.68;21.45;;;;;;;13.40;86.48;98423.94;1763676;80;21288;-76
2022/10/12 07:34:38;;;;;;;32.30;21.15;;;;;;;13.53;86.34;98420.91;1781204;80;20977;-76
2022/10/12 07:37:05;;;;;;;30.62;19.67;;;;;;;13.69;86.49;98422.09;1787532;80;21035;-76
2022/10/12 07:39:31;;;;;;;29.32;20.32;;;;;;;13.83;86.25;98419.41;1787531;80;20948;-76
2022/10/12 07:41:58;;;;;;;28.10;19.82;;;;;;;13.92;86.11;98422.19;1787259;80;21040;-76
2022/10/12 07:44:25;;;;;;;29.85;18.70;;;;;;;13.99;85.77;98424.56;1784561;80;20985;-76
2022/10/12 07:46:51;;;;;;;32.93;20.17;;;;;;;14.06;85.14;98423.00;1746309;81;21466;-76
2022/10/12 07:49:18;;;;;;;32.65;22.17;;;;;;;14.08;84.74;98419.84;1709708;83;21000;-76
2022/10/12 07:51:46;;;;;;;31.65;22.87;;;;;;;14.12;84.68;98420.98;1701888;83;21002;-75
2022/10/12 07:54:13;;;;;;;47.80;26.23;;;;;;;14.21;84.38;98422.91;1729033;83;21020;-76
2022/10/12 07:56:40;;;;;;;36.85;26.20;;;;;;;14.25;83.84;98414.72;1708490;83;21003;-76
2022/10/12 07:59:07;;;;;;;40.92;26.62;;;;;;;14.29;83.29;98422.16;1719935;83;21024;-75
2022/10/12 08:01:34;;;;;;;36.73;25.72;;;;;;;14.36;83.75;98416.98;1709278;84;21046;-76
2022/10/12 08:04:01;;;;;;;41.95;28.57;;;;;;;14.38;82.55;98420.45;1748653;81;21010;-76
2022/10/12 08:06:31;;;;;;;41.53;28.38;;;;;;;14.38;82.37;98416.94;1760087;81;20982;-75
2022/10/12 08:09:00;;;;;;;42.23;26.90;;;;;;;14.37;82.15;98417.39;1691497;83;20997;-76
2022/10/12 08:11:27;;;;;;;42.58;25.97;;;;;;;14.40;82.19;98417.73;1699557;83;21006;-76
2022/10/12 08:13:54;;;;;;;39.75;25.97;;;;;;;14.39;82.03;98414.22;1702374;83;21022;-76
2022/10/12 08:16:22;;;;;;;46.33;27.93;;;;;;;14.47;82.35;98417.91;1716565;83;21006;-74
2022/10/12 08:18:49;;;;;;;37.58;26.37;;;;;;;14.56;81.90;98415.34;1700453;83;21429;-73
2022/10/12 08:21:17;;;;;;;41.45;26.65;;;;;;;14.59;80.92;98415.23;1728970;83;21028;-74
2022/10/12 08:23:44;;;;;;;45.17;26.23;;;;;;;14.58;80.83;98413.47;1709741;83;21459;-74
2022/10/12 08:26:12;;;;;;;39.03;26.55;;;;;;;14.59;80.88;98413.02;1721519;83;21085;-74
2022/10/12 08:28:39;;;;;;;38.73;25.55;;;;;;;14.65;81.11;98412.77;1717950;83;21042;-74
2022/10/12 08:31:09;;;;;;;38.35;26.80;;;;;;;14.74;80.91;98415.08;1719664;83;21538;-75
2022/10/12 08:33:35;;;;;;;44.55;26.35;;;;;;;14.81;80.89;98411.73;1726480;83;21048;-75
2022/10/12 08:36:04;;;;;;;41.50;27.45;;;;;;;14.86;80.40;98411.08;1729327;83;20972;-74
2022/10/12 08:38:31;;;;;;;38.53;26.87;;;;;;;14.91;79.63;98409.09;1708294;83;21065;-74
2022/10/12 08:41:44;;;;;;;42.75;28.07;;;;;;;14.96;79.92;98411.59;1729219;82;20942;-75
2022/10/12 08:44:43;;;;;;;43.13;27.70;;;;;;;15.02;79.97;98403.78;1729223;82;20988;-76
2022/10/12 08:47:30;;;;;;;41.20;27.13;;;;;;;15.10;79.77;98407.46;1729525;80;20985;-75
2022/10/12 08:49:59;;;;;;;42.27;28.15;;;;;;;15.16;79.45;98409.90;1752097;80;20985;-75
2022/10/12 08:52:31;;;;;;;43.05;28.42;;;;;;;15.28;77.41;98408.52;1756004;80;21037;-75
2022/10/12 08:55:24;;;;;;;41.88;27.82;;;;;;;15.30;77.93;98411.98;1756098;80;20977;-75
2022/10/12 08:57:50;;;;;;;43.55;28.57;;;;;;;15.40;77.96;98411.98;1761194;80;21073;-75
2022/10/12 09:00:18;;;;;;;46.30;28.90;;;;;;;15.48;78.35;98400.97;1761208;80;20993;-75
2022/10/12 09:03:02;;;;;;;41.30;27.90;;;;;;;15.62;77.17;98407.53;1762365;80;20941;-75
2022/10/12 09:05:43;;;;;;;38.00;27.55;;;;;;;15.73;77.33;98402.56;1761487;80;20996;-75
2022/10/12 09:08:58;;;;;;;44.67;27.15;;;;;;;15.79;76.76;98406.33;1758450;80;20969;-75
2022/10/12 09:11:45;;;;;;;42.60;27.07;;;;;;;15.82;76.37;98396.81;1750591;80;21032;-75
2022/10/12 09:14:18;;;;;;;38.28;25.32;;;;;;;15.94;76.64;98395.89;1761207;80;21021;-75
2022/10/12 09:16:48;;;;;;;42.80;26.33;;;;;;;15.96;76.29;98394.91;1761300;80;22071;-75
2022/10/12 09:19:21;;;;;;;39.55;25.95;;;;;;;16.01;74.76;98392.47;1761157;80;21028;-75
2022/10/12 09:21:50;;;;;;;43.13;28.35;;;;;;;16.06;75.75;98393.13;1758595;80;20966;-75
2022/10/12 09:24:26;;;;;;;38.88;25.82;;;;;;;16.07;75.42;98402.42;1757004;80;20965;-75
2022/10/12 09:26:59;;;;;;;38.85;25.32;;;;;;;16.08;75.43;98393.95;1770005;80;21068;-75
2022/10/12 09:29:33;;;;;;;37.88;24.65;;;;;;;16.06;75.30;98395.80;1765952;80;21000;-75
2022/10/12 09:32:30;;;;;;;35.38;23.60;;;;;;;16.10;75.27;98400.95;1745733;80;21061;-75
2022/10/12 09:34:58;;;;;;;34.27;24.65;;;;;;;16.17;75.48;98397.53;1756975;80;20931;-75
2022/10/12 09:37:29;;;;;;;33.08;22.95;;;;;;;16.23;75.08;98401.71;1758929;80;20951;-76
2022/10/12 09:39:57;;;;;;;32.28;22.60;;;;;;;16.25;74.85;98397.17;1756090;80;21081;-75
2022/10/12 09:42:24;;;;;;;29.90;22.42;;;;;;;16.22;74.10;98397.31;1756053;80;21000;-75
2022/10/12 09:45:01;;;;;;;34.23;24.65;;;;;;;16.22;73.94;98394.63;1758028;80;21529;-75
2022/10/12 09:47:31;;;;;;;36.90;24.18;;;;;;;16.25;74.52;98385.14;1787270;80;21459;-75
2022/10/12 09:50:03;;;;;;;36.05;25.17;;;;;;;16.29;74.46;98392.09;1769510;80;20983;-75
2022/10/12 09:52:40;;;;;;;34.03;23.98;;;;;;;16.39;74.54;98393.00;1772917;80;20995;-76
2022/10/12 09:55:23;;;;;;;35.48;22.62;;;;;;;16.42;74.16;98392.84;1769039;80;21436;-76
2022/10/12 09:58:01;;;;;;;34.30;21.73;;;;;;;16.45;74.10;98397.56;1775361;80;20945;-76
2022/10/12 10:00:33;;;;;;;32.95;22.85;;;;;;;16.45;74.05;98391.36;1788839;80;21038;-76
2022/10/12 10:03:02;;;;;;;43.33;24.55;;;;;;;16.43;73.74;98390.09;1775365;80;21032;-75
2022/10/12 10:05:32;;;;;;;38.92;26.42;;;;;;;16.38;73.92;98394.80;1784025;80;20968;-75
2022/10/12 10:08:21;;;;;;;44.55;30.65;;;;;;;16.32;73.63;98392.41;1771290;80;20968;-76
2022/10/12 10:10:54;;;;;;;41.90;27.02;;;;;;;16.31;73.64;98394.21;1741521;80;20981;-76
2022/10/12 10:13:29;;;;;;;37.90;26.40;;;;;;;16.33;74.06;98386.12;1773848;80;21431;-76
2022/10/12 10:16:08;;;;;;;42.13;27.40;;;;;;;16.40;73.69;98376.84;1762651;80;21023;-75
2022/10/12 10:18:55;;;;;;;41.65;26.85;;;;;;;16.46;74.05;98382.39;1762988;80;20966;-75
2022/10/12 10:21:30;;;;;;;40.28;25.82;;;;;;;16.54;73.97;98384.70;1763852;80;21017;-75
2022/10/12 10:24:04;;;;;;;41.45;27.50;;;;;;;16.58;74.08;98388.51;1754868;80;20976;-75
2022/10/12 10:26:57;;;;;;;42.67;25.82;;;;;;;16.67;73.94;98379.62;1769709;80;20988;-76
2022/10/12 10:29:37;;;;;;;43.80;28.55;;;;;;;16.72;73.73;98381.14;1789791;80;21039;-75
2022/10/12 10:32:22;;;;;;;44.98;28.45;;;;;;;16.73;73.27;98380.19;1772476;80;20988;-75
2022/10/12 10:34:44;;;;;;;43.75;27.10;;;;;;;16.62;72.93;98377.18;1785173;80;21079;-75
2022/10/12 10:37:20;;;;;;;50.90;29.65;;;;;;;16.52;73.31;98371.39;1763902;80;20981;-75
2022/10/12 10:39:54;;;;;;;43.08;27.32;;;;;;;16.44;73.51;98372.25;1782023;80;21055;-75
2022/10/12 10:42:28;;;;;;;49.38;28.57;;;;;;;16.50;73.92;98374.62;1781065;80;21105;-75
2022/10/12 10:45:05;;;;;;;46.60;28.47;;;;;;;16.54;73.87;98366.85;1781767;80;21012;-76
2022/10/12 10:47:35;;;;;;;45.55;27.67;;;;;;;16.63;74.13;98369.54;1787404;80;20961;-76
2022/10/12 10:50:06;;;;;;;43.95;28.42;;;;;;;16.71;73.99;98358.46;1784536;80;20937;-76
2022/10/12 10:52:35;;;;;;;45.92;28.38;;;;;;;16.73;73.41;98362.80;1773403;80;21379;-75
2022/10/12 10:55:18;;;;;;;43.92;29.20;;;;;;;16.75;73.79;98362.73;1787358;80;21072;-75
2022/10/12 10:58:26;;;;;;;49.90;28.87;;;;;;;16.76;73.55;98361.78;1787469;80;20960;-75
2022/10/12 11:00:57;;;;;;;48.70;29.55;;;;;;;16.67;73.63;98367.58;1763539;80;21040;-76
2022/10/12 11:03:49;;;;;;;49.73;29.23;;;;;;;16.54;73.90;98357.94;1782609;80;20933;-76
2022/10/12 11:06:41;;;;;;;43.08;29.00;;;;;;;16.81;74.34;98358.89;1763485;80;21068;-76
2022/10/12 11:09:22;;;;;;;50.15;29.65;;;;;;;16.95;73.82;98355.52;1785956;80;21367;-76
2022/10/12 11:11:56;;;;;;;45.90;28.20;;;;;;;16.98;73.59;98352.20;1772027;80;20958;-76
2022/10/12 11:14:26;;;;;;;;;;;;;;;17.00;72.91;98358.83;1766493;80;20959;-75
2022/10/12 11:17:04;;;;;;;43.23;28.47;;;;;;;17.04;73.73;98359.11;1763595;80;20126;-75
2022/10/12 11:20:07;;;;;;;39.70;27.32;;;;;;;17.07;73.48;98354.07;1779569;80;21017;-75
2022/10/12 11:22:59;;;;;;;47.00;27.75;;;;;;;17.13;73.56;98351.07;1766692;80;21016;-75
2022/10/12 11:25:50;;;;;;;42.62;27.90;;;;;;;17.13;73.08;98349.27;1787122;80;21048;-75
2022/10/12 11:28:16;;;;;;;45.88;27.02;;;;;;;17.17;74.29;98344.63;1752457;81;21408;-74
2022/10/12 11:30:48;;;;;;;37.88;26.25;;;;;;;17.19;73.92;98339.19;1716677;82;20985;-74
2022/10/12 11:33:37;;;;;;;44.80;26.82;;;;;;;17.30;74.12;98331.95;1747511;81;20970;-74
2022/10/12 11:36:13;;;;;;;44.88;26.12;;;;;;;17.43;73.04;98332.17;1745752;81;21552;-75
2022/10/12 11:38:47;;;;;;;46.75;26.70;;;;;;;17.52;73.02;98335.22;1767258;81;21387;-75
2022/10/12 11:41:21;;;;;;;42.38;25.65;;;;;;;17.66;72.66;98332.29;1748365;81;20976;-76